createdAt,value
2017-11-13T00:02:02.880Z,3.7
2017-11-13T00:07:03.483Z,3.8
2017-11-13T00:12:03.042Z,3.8
2017-11-13T00:17:03.371Z,3.9
2017-11-13T00:22:03.327Z,3.8
2017-11-13T00:27:03.627Z,3.8
2017-11-13T00:32:02.788Z,3.8
2017-11-13T00:37:03.434Z,3.8
2017-11-13T00:42:02.732Z,4.0
2017-11-13T00:47:02.927Z,4.2
2017-11-13T00:52:02.979Z,4.2
2017-11-13T00:57:03.025Z,4.2
2017-11-13T01:02:03.352Z,4.2
2017-11-13T01:07:03.010Z,4.1
2017-11-13T01:12:03.390Z,4.1
2017-11-13T01:17:03.572Z,4.0
2017-11-13T01:22:03.048Z,4.0
2017-11-13T01:27:03.321Z,4.1
2017-11-13T01:32:03.626Z,4.3
2017-11-13T01:37:03.105Z,4.5
2017-11-13T01:42:03.370Z,4.4
2017-11-13T01:47:03.125Z,4.6
2017-11-13T01:52:03.146Z,4.7
2017-11-13T01:57:03.401Z,4.9
2017-11-13T02:02:02.711Z,4.8
2017-11-13T02:07:03.498Z,5.0
2017-11-13T02:12:02.822Z,5.1
2017-11-13T02:17:03.103Z,5.1
2017-11-13T02:22:03.474Z,5.1
2017-11-13T02:27:03.521Z,5.1
2017-11-13T02:32:02.809Z,5.1
2017-11-13T02:37:03.096Z,4.9
2017-11-13T02:42:03.227Z,4.9
2017-11-13T02:47:03.558Z,4.8
2017-11-13T02:52:02.648Z,4.8
2017-11-13T02:57:02.901Z,4.6
2017-11-13T03:02:03.224Z,4.6
2017-11-13T03:07:03.324Z,4.6
2017-11-13T03:12:02.902Z,4.5
2017-11-13T03:17:03.158Z,4.7
2017-11-13T03:22:03.363Z,4.7
2017-11-13T03:27:03.598Z,4.7
2017-11-13T03:32:02.810Z,4.6
2017-11-13T03:37:03.626Z,4.6
2017-11-13T03:42:02.933Z,4.6
2017-11-13T03:47:03.189Z,4.6
2017-11-13T03:52:03.546Z,4.5
2017-11-13T03:57:02.959Z,4.5
2017-11-13T04:02:03.203Z,4.5
2017-11-13T04:07:02.822Z,4.5
2017-11-13T04:12:03.333Z,4.6
2017-11-13T04:17:03.797Z,4.7
2017-11-13T04:22:03.061Z,4.6
2017-11-13T04:27:03.312Z,4.7
2017-11-13T04:32:03.633Z,4.6
2017-11-13T04:37:02.922Z,4.7
2017-11-13T04:42:03.095Z,4.6
2017-11-13T04:47:03.482Z,4.6
2017-11-13T04:52:02.777Z,4.7
2017-11-13T04:57:03.061Z,4.8
2017-11-13T05:02:03.275Z,4.9
2017-11-13T05:07:02.833Z,4.9
2017-11-13T05:12:03.217Z,4.9
2017-11-13T05:17:03.575Z,4.8
2017-11-13T05:22:02.961Z,4.7
2017-11-13T05:27:03.272Z,4.5
2017-11-13T05:32:03.431Z,4.5
2017-11-13T05:37:02.770Z,4.4
2017-11-13T05:42:03.050Z,4.4
2017-11-13T05:47:03.311Z,4.5
2017-11-13T05:52:02.656Z,4.5
2017-11-13T05:57:02.960Z,4.6
2017-11-13T06:02:04.760Z,4.6
2017-11-13T06:07:02.880Z,4.6
2017-11-13T06:12:03.360Z,4.6
2017-11-13T06:17:13.464Z,4.8
2017-11-13T06:22:02.941Z,5.0
2017-11-13T06:27:03.271Z,5.0
2017-11-13T06:32:18.123Z,5.0
2017-11-13T06:37:03.476Z,4.9
2017-11-13T06:42:03.546Z,4.8
2017-11-13T06:47:17.962Z,4.8
2017-11-13T06:52:02.748Z,4.8
2017-11-13T06:57:03.221Z,4.8
2017-11-13T07:02:13.989Z,4.9
2017-11-13T07:07:03.268Z,4.9
2017-11-13T07:12:02.798Z,4.9
2017-11-13T07:17:13.577Z,4.9
2017-11-13T07:22:02.697Z,4.9
2017-11-13T07:27:03.146Z,5.0
2017-11-13T07:32:13.995Z,5.2
2017-11-13T07:37:02.919Z,5.3
2017-11-13T07:42:03.327Z,5.4
2017-11-13T07:47:13.164Z,5.7
2017-11-13T07:52:03.169Z,5.7
2017-11-13T07:57:03.527Z,5.7
2017-11-13T08:02:13.416Z,4.9
2017-11-13T08:07:03.368Z,4.8
2017-11-13T08:12:03.036Z,4.7
2017-11-13T08:17:11.566Z,4.7
2017-11-13T08:22:03.415Z,4.9
2017-11-13T08:27:02.872Z,5.1
2017-11-13T08:32:13.973Z,5.3
2017-11-13T08:37:02.750Z,5.2
2017-11-13T08:42:03.096Z,5.5
2017-11-13T08:47:13.853Z,5.7
2017-11-13T08:52:02.929Z,5.9
2017-11-13T08:57:03.322Z,6.1
2017-11-13T09:02:13.211Z,6.8
2017-11-13T09:07:03.183Z,7.1
2017-11-13T09:12:02.896Z,7.1
2017-11-13T09:17:13.931Z,7.1
2017-11-13T09:22:02.957Z,7.1
2017-11-13T09:27:03.411Z,6.7
2017-11-13T09:32:13.224Z,6.9
2017-11-13T09:37:03.259Z,6.8
2017-11-13T09:42:03.630Z,7.0
2017-11-13T09:47:13.561Z,7.2
2017-11-13T09:52:03.379Z,7.7
2017-11-13T09:57:02.857Z,7.6
2017-11-13T10:02:13.535Z,6.8
2017-11-13T10:07:02.818Z,6.6
2017-11-13T10:12:03.426Z,6.6
2017-11-13T10:17:13.305Z,6.6
2017-11-13T10:22:03.305Z,6.6
2017-11-13T10:27:02.758Z,6.7
2017-11-13T10:32:13.570Z,6.7
2017-11-13T10:37:03.572Z,6.8
2017-11-13T10:42:02.899Z,7.2
2017-11-13T10:47:13.811Z,7.0
2017-11-13T10:52:02.793Z,6.3
2017-11-13T10:57:03.201Z,6.2
2017-11-13T11:02:13.974Z,6.1
2017-11-13T11:07:03.099Z,6.1
2017-11-13T11:12:03.597Z,6.1
2017-11-13T11:17:13.572Z,6.2
2017-11-13T11:22:03.509Z,6.7
2017-11-13T11:27:02.892Z,6.7
2017-11-13T11:32:13.786Z,6.8
2017-11-13T11:37:02.776Z,6.8
2017-11-13T11:42:03.248Z,6.6
2017-11-13T11:47:14.122Z,6.7
2017-11-13T11:52:03.362Z,6.7
2017-11-13T11:57:02.824Z,6.7
2017-11-13T12:02:18.157Z,6.8
2017-11-13T12:07:03.530Z,6.7
2017-11-13T12:12:03.216Z,6.7
2017-11-13T12:17:14.097Z,6.8
2017-11-13T12:22:03.049Z,7.2
2017-11-13T12:27:03.469Z,7.2
2017-11-13T12:32:13.380Z,7.7
2017-11-13T12:37:03.326Z,8.1
2017-11-13T12:42:02.671Z,8.1
2017-11-13T12:47:13.519Z,8.2
2017-11-13T12:52:03.409Z,8.3
2017-11-13T12:57:02.910Z,8.2
2017-11-13T13:02:18.047Z,8.6
2017-11-13T13:07:03.367Z,8.6
2017-11-13T13:12:02.930Z,9.2
2017-11-13T13:17:18.080Z,10.1
2017-11-13T13:22:03.489Z,10.0
2017-11-13T13:27:03.000Z,10.0
2017-11-13T13:32:14.011Z,9.8
2017-11-13T13:37:03.501Z,10.0
2017-11-13T13:42:02.871Z,10.4
2017-11-13T13:47:23.284Z,10.1
2017-11-13T13:52:02.996Z,12.1
2017-11-13T13:57:03.420Z,12.0
2017-11-13T14:02:13.100Z,11.2
2017-11-13T14:07:03.397Z,11.2
2017-11-13T14:12:02.891Z,10.9
2017-11-13T14:17:13.921Z,10.7
2017-11-13T14:22:02.971Z,10.7
2017-11-13T14:27:03.440Z,12.2
2017-11-13T14:32:13.007Z,12.9
2017-11-13T14:37:03.141Z,14.1
2017-11-13T14:42:03.421Z,12.6
2017-11-13T14:47:13.150Z,11.2
2017-11-13T14:52:03.300Z,11.1
2017-11-13T14:57:02.717Z,10.5
2017-11-13T15:02:13.655Z,9.0
2017-11-13T15:07:02.824Z,10.1
2017-11-13T15:12:03.382Z,10.1
2017-11-13T15:17:18.213Z,9.2
2017-11-13T15:22:03.529Z,9.1
2017-11-13T15:27:03.068Z,8.2
2017-11-13T15:32:17.996Z,7.5
2017-11-13T15:37:03.160Z,7.2
2017-11-13T15:42:03.429Z,7.0
2017-11-13T15:47:13.465Z,7.0
2017-11-13T15:52:02.977Z,6.9
2017-11-13T15:57:03.575Z,6.5
2017-11-13T16:02:13.781Z,6.4
2017-11-13T16:07:02.964Z,6.2
2017-11-13T16:12:03.574Z,6.1
2017-11-13T16:17:23.736Z,5.9
2017-11-13T16:22:03.379Z,5.8
2017-11-13T16:27:03.694Z,11.5
2017-11-13T16:32:06.870Z,5.6
2017-11-13T16:37:03.470Z,5.5
2017-11-13T16:42:02.812Z,5.4
2017-11-13T16:47:03.159Z,5.5
2017-11-13T16:52:03.421Z,5.6
2017-11-13T16:57:02.799Z,5.6
2017-11-13T17:02:03.399Z,5.3
2017-11-13T17:07:03.547Z,5.3
2017-11-13T17:12:03.089Z,5.2
2017-11-13T17:17:03.339Z,5.2
2017-11-13T17:22:02.746Z,5.0
2017-11-13T17:27:03.059Z,5.0
2017-11-13T17:32:03.334Z,5.0
2017-11-13T17:37:03.617Z,5.0
2017-11-13T17:42:02.926Z,5.1
2017-11-13T17:47:03.184Z,5.2
2017-11-13T17:52:03.565Z,5.3
2017-11-13T17:57:02.944Z,5.4
2017-11-13T18:02:03.169Z,5.3
2017-11-13T18:07:03.501Z,5.3
2017-11-13T18:12:03.054Z,5.1
2017-11-13T18:17:03.406Z,5.0
2017-11-13T18:22:02.769Z,5.0
2017-11-13T18:27:03.102Z,4.9
2017-11-13T18:32:03.360Z,4.9
2017-11-13T18:37:03.677Z,4.8
2017-11-13T18:42:02.932Z,4.9
2017-11-13T18:47:03.251Z,5.1
2017-11-13T18:52:03.529Z,5.0
2017-11-13T18:57:02.809Z,5.2
2017-11-13T19:02:03.136Z,5.1
2017-11-13T19:07:03.486Z,5.0
2017-11-13T19:12:02.968Z,4.9
2017-11-13T19:17:03.297Z,5.0
2017-11-13T19:22:03.621Z,5.0
2017-11-13T19:27:03.044Z,4.9
2017-11-13T19:32:03.328Z,5.0
2017-11-13T19:37:03.600Z,5.0
2017-11-13T19:42:02.898Z,5.1
2017-11-13T19:47:03.221Z,5.1
2017-11-13T19:52:03.417Z,5.1
2017-11-13T19:57:02.826Z,5.1
2017-11-13T20:02:03.083Z,5.3
2017-11-13T20:07:03.597Z,5.2
2017-11-13T20:12:03.047Z,5.2
2017-11-13T20:17:03.310Z,5.3
2017-11-13T20:22:03.652Z,5.3
2017-11-13T20:27:03.027Z,5.3
2017-11-13T20:32:03.302Z,5.3
2017-11-13T20:37:03.561Z,5.3
2017-11-13T20:42:02.854Z,5.3
2017-11-13T20:47:03.218Z,5.4
2017-11-13T20:52:03.358Z,5.4
2017-11-13T20:57:02.675Z,5.3
2017-11-13T21:02:03.057Z,5.2
2017-11-13T21:07:03.421Z,5.1
2017-11-13T21:12:02.860Z,5.1
2017-11-13T21:17:03.238Z,5.0
2017-11-13T21:22:03.581Z,4.9
2017-11-13T21:27:02.977Z,4.8
2017-11-13T21:32:03.345Z,4.9
2017-11-13T21:37:03.579Z,5.0
2017-11-13T21:42:02.925Z,5.2
2017-11-13T21:47:03.189Z,5.3
2017-11-13T21:52:03.435Z,5.3
2017-11-13T21:57:02.817Z,5.3
2017-11-13T22:02:03.109Z,5.0
2017-11-13T22:07:03.472Z,5.0
2017-11-13T22:12:03.015Z,5.1
2017-11-13T22:17:03.532Z,5.0
2017-11-13T22:22:02.702Z,4.9
2017-11-13T22:27:03.109Z,4.8
2017-11-13T22:32:03.329Z,4.6
2017-11-13T22:37:02.717Z,4.6
2017-11-13T22:42:03.043Z,4.5
2017-11-13T22:47:03.398Z,4.4
2017-11-13T22:52:02.596Z,4.3
2017-11-13T22:57:03.001Z,4.2
2017-11-13T23:02:03.363Z,3.9
2017-11-13T23:07:03.103Z,3.9
2017-11-13T23:12:03.356Z,3.9
2017-11-13T23:22:03.867Z,3.6
2017-11-13T23:27:03.541Z,3.5
2017-11-13T23:32:03.632Z,3.5
2017-11-13T23:37:03.075Z,3.6
2017-11-13T23:42:03.084Z,3.8
2017-11-13T23:47:03.110Z,3.8
2017-11-13T23:52:02.645Z,3.8
2017-11-13T23:57:02.831Z,3.9
